Time;durP1;ratioP1;P1;durP2;ratioP2;P2;SDS_P1;SDS_P2;PMS_P1;PMS_P2;Temp;Humidity;BMP_temperature;BMP_pressure;BME280_temperature;BME280_humidity;BME280_pressure;Samples;Min_cycle;Max_cycle;Signal;HPM_P1;HPM_P2
2022/01/16 00:00:54;;;;;;;62.72;21.08;;;2.70;99.90;;;;;;5052251;28;20032;-79
2022/01/16 00:06:04;;;;;;;59.42;21.75;;;2.80;99.90;;;;;;5052079;28;20041;-79
2022/01/16 00:08:29;;;;;;;56.83;20.40;;;2.80;99.90;;;;;;5052154;28;20045;-78
2022/01/16 00:10:55;;;;;;;69.63;22.15;;;2.70;99.90;;;;;;5051906;28;20045;-79
2022/01/16 00:13:20;;;;;;;66.78;22.63;;;2.80;99.90;;;;;;5052394;28;20032;-78
2022/01/16 00:15:46;;;;;;;61.17;23.33;;;2.70;99.90;;;;;;5055818;28;20032;-79
2022/01/16 00:18:24;;;;;;;62.85;23.10;;;2.70;99.90;;;;;;5056090;28;20111;-79
2022/01/16 00:20:50;;;;;;;58.08;21.65;;;2.80;99.90;;;;;;5056320;28;20448;-79
2022/01/16 00:23:25;;;;;;;67.35;21.95;;;2.70;99.90;;;;;;5056178;28;20017;-79
2022/01/16 00:25:56;;;;;;;62.33;21.40;;;2.70;99.90;;;;;;5056214;28;20021;-79
2022/01/16 00:28:23;;;;;;;61.35;21.75;;;2.80;99.90;;;;;;5055811;28;20025;-79
2022/01/16 00:30:49;;;;;;;61.97;21.40;;;2.80;99.90;;;;;;5055806;28;20029;-79
2022/01/16 00:33:15;;;;;;;65.45;22.02;;;2.80;99.90;;;;;;5055650;28;20017;-79
2022/01/16 00:35:40;;;;;;;63.05;22.77;;;2.80;99.90;;;;;;5055645;28;20025;-79
2022/01/16 00:38:06;;;;;;;68.10;23.02;;;2.80;99.90;;;;;;5055778;28;20118;-79
2022/01/16 00:40:32;;;;;;;76.32;24.25;;;2.80;99.90;;;;;;5055699;28;20017;-79
2022/01/16 00:42:58;;;;;;;61.92;21.48;;;2.90;99.90;;;;;;5055808;28;20017;-79
2022/01/16 00:45:25;;;;;;;71.53;21.65;;;2.80;99.90;;;;;;5055514;28;20388;-79
2022/01/16 00:47:51;;;;;;;66.35;21.15;;;2.80;99.90;;;;;;5055606;28;20033;-79
2022/01/16 00:50:16;;;;;;;71.70;22.75;;;2.90;99.90;;;;;;5055063;28;20032;-78
2022/01/16 00:52:42;;;;;;;71.53;23.63;;;2.90;99.90;;;;;;5054971;28;20439;-79
2022/01/16 00:55:08;;;;;;;78.00;24.65;;;2.80;99.90;;;;;;5055146;28;20020;-79
2022/01/16 00:57:34;;;;;;;75.65;21.75;;;2.90;99.90;;;;;;5055496;28;20021;-79
2022/01/16 00:59:59;;;;;;;75.40;22.73;;;2.90;99.90;;;;;;5055222;28;20025;-79
2022/01/16 01:02:25;;;;;;;68.90;21.95;;;2.90;99.90;;;;;;5055108;28;20032;-78
2022/01/16 01:04:51;;;;;;;73.18;23.70;;;2.90;99.90;;;;;;5055177;28;20017;-78
2022/01/16 01:07:17;;;;;;;76.75;23.25;;;2.90;99.90;;;;;;5055154;28;20021;-79
2022/01/16 01:09:43;;;;;;;79.00;24.15;;;2.80;99.90;;;;;;5055093;28;20104;-78
2022/01/16 01:12:10;;;;;;;74.35;22.50;;;2.80;99.90;;;;;;5054837;28;20081;-78
2022/01/16 01:14:53;;;;;;;72.95;22.42;;;2.90;99.90;;;;;;5053700;28;20450;-79
2022/01/16 01:17:23;;;;;;;80.78;22.52;;;2.90;99.90;;;;;;5055166;28;20025;-79
2022/01/16 01:19:49;;;;;;;87.30;23.52;;;2.90;99.90;;;;;;5054952;28;20107;-78
2022/01/16 01:22:15;;;;;;;77.53;23.92;;;2.90;99.90;;;;;;5054873;28;20103;-79
2022/01/16 01:24:41;;;;;;;67.40;20.92;;;3.00;99.90;;;;;;5054605;28;20029;-79
2022/01/16 01:27:20;;;;;;;80.93;22.35;;;3.00;99.90;;;;;;5054786;28;20021;-79
2022/01/16 01:29:54;;;;;;;83.83;23.40;;;3.00;99.90;;;;;;5055063;28;20122;-79
2022/01/16 01:32:19;;;;;;;74.18;22.48;;;3.10;99.90;;;;;;5053339;28;20047;-79
2022/01/16 01:34:45;;;;;;;78.15;24.25;;;3.00;99.90;;;;;;5054574;28;20692;-79
2022/01/16 01:37:11;;;;;;;77.22;24.65;;;3.00;99.90;;;;;;5047095;28;20029;-79
2022/01/16 01:39:36;;;;;;;80.10;23.98;;;3.10;99.90;;;;;;5053980;28;20040;-78
2022/01/16 01:42:07;;;;;;;88.60;23.52;;;3.10;99.90;;;;;;5054276;28;20021;-78
2022/01/16 01:52:50;;;;;;;76.43;24.25;;;3.30;99.90;;;;;;5034727;28;20094;-78
2022/01/16 01:55:16;;;;;;;85.45;24.35;;;3.30;99.90;;;;;;5049765;28;20385;-79
2022/01/16 01:57:42;;;;;;;86.47;23.40;;;3.30;99.90;;;;;;5053417;28;20029;-79
2022/01/16 02:00:08;;;;;;;86.10;24.88;;;3.30;99.90;;;;;;5054253;28;20104;-78
2022/01/16 02:02:46;;;;;;;86.22;25.02;;;3.40;99.90;;;;;;5054128;28;20370;-78
2022/01/16 02:05:11;;;;;;;88.07;25.05;;;3.40;99.90;;;;;;5054450;28;20104;-79
2022/01/16 02:07:37;;;;;;;91.57;25.45;;;3.50;99.90;;;;;;5053863;28;20437;-79
2022/01/16 02:10:03;;;;;;;97.65;24.63;;;3.50;99.90;;;;;;5051846;28;20025;-79
2022/01/16 02:12:30;;;;;;;106.85;26.45;;;3.50;99.90;;;;;;5053447;28;20538;-79
2022/01/16 02:15:07;;;;;;;101.32;26.45;;;3.60;99.90;;;;;;5052468;28;20060;-79
2022/01/16 02:36:27;;;;;;;93.88;27.17;;;3.80;99.90;;;;;;5053362;28;20033;-79
2022/01/16 02:39:09;;;;;;;104.70;26.35;;;3.90;99.90;;;;;;5053733;28;20029;-79
2022/01/16 02:41:35;;;;;;;95.75;27.48;;;3.80;99.90;;;;;;5053467;28;20021;-79
2022/01/16 02:44:10;;;;;;;102.22;25.30;;;3.90;99.90;;;;;;5053346;28;20070;-79
2022/01/16 02:46:36;;;;;;;89.65;25.65;;;3.80;99.90;;;;;;5052001;28;20025;-79
2022/01/16 02:49:02;;;;;;;94.88;26.35;;;4.00;99.90;;;;;;5053290;28;20064;-79
2022/01/16 02:51:29;;;;;;;93.88;25.98;;;4.00;99.90;;;;;;5051757;28;20695;-79
2022/01/16 02:53:55;;;;;;;102.80;27.30;;;3.90;99.90;;;;;;5053020;28;20027;-79
2022/01/16 02:56:21;;;;;;;88.97;27.13;;;4.00;99.90;;;;;;5053239;28;20131;-80
2022/01/16 02:58:49;;;;;;;103.90;28.65;;;4.00;99.90;;;;;;5053057;28;20021;-79
2022/01/16 03:01:14;;;;;;;98.43;27.48;;;4.00;99.90;;;;;;5052983;28;20028;-79
2022/01/16 03:03:40;;;;;;;95.65;27.00;;;4.00;99.90;;;;;;5052853;28;20025;-79
2022/01/16 03:06:06;;;;;;;101.13;26.83;;;4.00;99.90;;;;;;5053060;28;20469;-79
2022/01/16 03:08:32;;;;;;;104.15;26.85;;;4.00;99.90;;;;;;5051450;28;20040;-79
2022/01/16 03:13:49;;;;;;;;;;;4.10;99.90;;;;;;5052799;28;20032;-79
2022/01/16 03:16:17;;;;;;;99.68;27.15;;;4.10;99.90;;;;;;5051572;28;19904;-79
2022/01/16 03:24:14;;;;;;;102.47;29.25;;;4.30;99.90;;;;;;5051956;28;20040;-79
2022/01/16 03:26:40;;;;;;;94.65;27.70;;;4.20;99.90;;;;;;5051618;28;20025;-79
2022/01/16 03:29:05;;;;;;;85.20;27.33;;;4.30;99.90;;;;;;5051628;28;20418;-79
2022/01/16 03:31:31;;;;;;;110.35;30.83;;;4.30;99.90;;;;;;5051847;28;20025;-79
2022/01/16 03:33:56;;;;;;;112.47;30.17;;;4.30;99.90;;;;;;5051852;28;20029;-79
2022/01/16 03:36:22;;;;;;;108.07;30.13;;;4.30;99.90;;;;;;5051599;28;20017;-79
2022/01/16 03:38:48;;;;;;;99.18;28.45;;;4.30;99.90;;;;;;5051541;28;20029;-79
2022/01/16 03:41:13;;;;;;;109.60;29.85;;;4.40;99.90;;;;;;5051547;28;20025;-79
2022/01/16 03:43:39;;;;;;;97.55;28.92;;;4.40;99.90;;;;;;5051636;28;20017;-79
2022/01/16 03:46:05;;;;;;;96.38;29.50;;;4.40;99.90;;;;;;5051492;28;20101;-79
2022/01/16 03:48:31;;;;;;;93.82;29.40;;;4.40;99.90;;;;;;5050176;28;20029;-79
2022/01/16 03:50:56;;;;;;;101.05;29.15;;;4.50;99.90;;;;;;5051568;28;20021;-79
2022/01/16 03:53:22;;;;;;;104.65;30.10;;;4.40;99.90;;;;;;5051406;28;20021;-79
2022/01/16 03:55:48;;;;;;;102.38;29.80;;;4.40;99.90;;;;;;5051433;28;20029;-79
2022/01/16 03:58:14;;;;;;;106.78;31.38;;;4.50;99.90;;;;;;5051512;28;20025;-79
2022/01/16 04:00:40;;;;;;;96.72;28.60;;;4.60;99.90;;;;;;5051365;28;20473;-79
2022/01/16 04:03:06;;;;;;;106.10;30.20;;;4.60;99.90;;;;;;5051276;28;20021;-79
2022/01/16 04:05:31;;;;;;;110.05;30.42;;;4.60;99.90;;;;;;5049995;28;20541;-79
2022/01/16 04:07:59;;;;;;;105.07;31.33;;;4.50;99.90;;;;;;5051092;28;20041;-79
2022/01/16 04:10:25;;;;;;;103.60;30.40;;;4.60;99.90;;;;;;5015137;28;1038795;-79
2022/01/16 04:12:51;;;;;;;91.55;28.63;;;4.60;99.90;;;;;;5052253;28;20021;-79
2022/01/16 04:17:44;;;;;;;92.63;28.73;;;4.70;99.90;;;;;;5052074;28;20059;-79
2022/01/16 04:20:15;;;;;;;103.05;28.17;;;4.70;99.90;;;;;;5052329;28;20017;-79
2022/01/16 04:22:45;;;;;;;102.47;29.10;;;4.80;99.90;;;;;;5052202;28;20108;-79
2022/01/16 04:25:11;;;;;;;85.15;29.02;;;4.70;99.90;;;;;;5052217;28;20103;-79
2022/01/16 04:27:37;;;;;;;86.95;27.85;;;4.70;99.90;;;;;;5050764;28;20385;-79
2022/01/16 04:30:03;;;;;;;107.28;29.45;;;4.60;99.90;;;;;;5051817;28;20041;-79
2022/01/16 04:32:29;;;;;;;93.57;28.15;;;4.70;99.90;;;;;;5051900;28;20104;-79
2022/01/16 04:34:54;;;;;;;103.55;29.83;;;4.70;99.90;;;;;;5052050;28;20459;-79
2022/01/16 04:37:20;;;;;;;102.78;28.65;;;4.60;99.90;;;;;;5051935;28;20033;-79
2022/01/16 04:39:50;;;;;;;89.40;28.23;;;4.70;99.90;;;;;;5051785;28;20029;-79
2022/01/16 04:45:00;;;;;;;81.25;26.85;;;4.70;99.90;;;;;;5051803;28;20367;-80
2022/01/16 04:47:26;;;;;;;87.43;28.65;;;4.80;99.90;;;;;;5051720;28;20025;-81
2022/01/16 04:49:51;;;;;;;99.97;27.75;;;4.70;99.90;;;;;;5051846;28;20072;-80
2022/01/16 04:52:17;;;;;;;91.78;28.10;;;4.70;99.90;;;;;;5039539;28;20505;-79
2022/01/16 04:54:42;;;;;;;97.63;28.58;;;4.70;99.90;;;;;;5049848;28;20103;-79
2022/01/16 04:57:10;;;;;;;83.80;27.58;;;4.70;99.90;;;;;;5052711;28;20029;-80
2022/01/16 04:59:35;;;;;;;90.18;29.85;;;4.80;99.90;;;;;;5054381;28;20021;-80
2022/01/16 05:02:01;;;;;;;91.20;29.30;;;4.80;99.90;;;;;;5056174;28;20037;-79
2022/01/16 05:04:26;;;;;;;82.90;29.83;;;4.80;99.90;;;;;;5056133;28;20021;-79
2022/01/16 05:06:52;;;;;;;95.72;31.35;;;4.90;99.90;;;;;;5056104;28;20031;-79
2022/01/16 05:09:17;;;;;;;89.28;28.50;;;4.80;99.90;;;;;;5056077;28;20071;-79
2022/01/16 05:11:45;;;;;;;85.15;27.02;;;4.90;99.90;;;;;;5055890;28;20080;-77
2022/01/16 05:16:54;;;;;;;92.47;28.83;;;4.80;99.90;;;;;;5056226;28;20089;-77
2022/01/16 05:19:20;;;;;;;81.03;27.95;;;4.90;99.90;;;;;;5056107;28;20033;-77
2022/01/16 05:21:46;;;;;;;84.60;27.77;;;4.90;99.90;;;;;;5055941;28;20111;-77
2022/01/16 05:24:12;;;;;;;80.25;28.08;;;4.90;99.90;;;;;;5055887;28;20468;-77
2022/01/16 05:26:40;;;;;;;88.07;29.27;;;5.00;99.90;;;;;;5055848;28;20092;-78
2022/01/16 05:29:07;;;;;;;79.57;27.40;;;4.90;99.90;;;;;;5055774;28;20029;-77
2022/01/16 05:31:32;;;;;;;76.18;27.90;;;5.10;99.90;;;;;;5056099;28;20025;-77
2022/01/16 05:33:58;;;;;;;73.13;27.02;;;5.10;99.90;;;;;;5056180;28;20033;-77
2022/01/16 05:36:23;;;;;;;82.85;28.88;;;5.10;99.90;;;;;;5055536;28;20017;-77
2022/01/16 05:38:50;;;;;;;77.95;26.75;;;5.00;99.90;;;;;;5055442;28;20021;-77
2022/01/16 05:41:18;;;;;;;81.03;26.88;;;5.00;99.90;;;;;;5055785;28;20464;-77
2022/01/16 05:43:44;;;;;;;77.05;26.58;;;5.10;99.90;;;;;;5055581;28;20017;-77
2022/01/16 05:46:10;;;;;;;67.32;26.48;;;5.10;99.90;;;;;;5054347;28;20021;-77
2022/01/16 05:48:35;;;;;;;68.32;26.15;;;5.20;99.90;;;;;;5055399;28;20036;-77
2022/01/16 05:51:01;;;;;;;69.95;26.15;;;5.20;99.90;;;;;;5055495;28;20033;-77
2022/01/16 05:53:26;;;;;;;60.55;25.85;;;5.30;99.90;;;;;;5055499;28;20071;-77
2022/01/16 05:55:52;;;;;;;60.20;26.05;;;5.30;99.90;;;;;;5053224;28;20025;-77
2022/01/16 05:58:18;;;;;;;66.38;27.83;;;5.30;99.90;;;;;;5054078;28;20052;-77
2022/01/16 06:00:47;;;;;;;67.55;26.02;;;5.40;99.90;;;;;;5055436;28;20033;-77
2022/01/16 06:03:13;;;;;;;61.53;24.42;;;5.40;99.90;;;;;;5055357;28;20020;-77
2022/01/16 06:05:39;;;;;;;56.38;25.05;;;5.50;99.90;;;;;;5054223;28;20404;-77
2022/01/16 06:08:11;;;;;;;54.92;24.38;;;5.50;99.90;;;;;;5053785;28;20037;-77
2022/01/16 06:10:37;;;;;;;57.28;25.55;;;5.50;99.90;;;;;;5052927;28;20052;-78
2022/01/16 06:13:04;;;;;;;60.33;24.30;;;5.50;99.90;;;;;;5053881;28;20029;-77
2022/01/16 06:15:30;;;;;;;64.15;24.83;;;5.50;99.90;;;;;;5054333;28;20422;-77
2022/01/16 06:17:56;;;;;;;49.65;23.52;;;5.50;99.90;;;;;;5053846;28;20032;-77
2022/01/16 06:20:22;;;;;;;53.85;24.63;;;5.60;99.90;;;;;;5053166;28;20029;-77
2022/01/16 06:22:47;;;;;;;51.35;23.58;;;5.50;99.90;;;;;;5053223;28;20491;-78
2022/01/16 06:25:13;;;;;;;48.58;22.42;;;5.60;99.90;;;;;;5053185;28;20388;-77
2022/01/16 06:27:40;;;;;;;54.58;23.45;;;5.60;99.90;;;;;;5052917;28;20079;-77
2022/01/16 06:30:08;;;;;;;55.75;23.10;;;5.70;99.90;;;;;;5052901;28;20347;-77
2022/01/16 06:32:34;;;;;;;49.42;21.38;;;5.60;99.90;;;;;;5052892;28;20421;-77
2022/01/16 06:35:00;;;;;;;49.55;22.25;;;5.60;99.90;;;;;;5053509;28;20507;-77
2022/01/16 06:37:25;;;;;;;46.65;21.48;;;5.60;99.90;;;;;;5053584;28;20055;-77
2022/01/16 06:39:51;;;;;;;49.58;22.00;;;5.70;99.90;;;;;;5053448;28;20472;-77
2022/01/16 06:42:16;;;;;;;51.67;21.10;;;5.60;99.90;;;;;;5053256;28;20094;-77
2022/01/16 06:44:42;;;;;;;48.90;21.38;;;5.70;99.90;;;;;;5053170;28;20558;-77
2022/01/16 06:47:08;;;;;;;48.28;20.85;;;5.70;99.90;;;;;;5053452;28;20032;-77
2022/01/16 06:49:33;;;;;;;46.70;19.73;;;5.70;99.90;;;;;;5053209;28;20037;-77
2022/01/16 06:51:59;;;;;;;44.20;20.10;;;5.60;99.90;;;;;;5052881;28;20531;-78
2022/01/16 06:54:24;;;;;;;42.20;18.77;;;5.60;99.90;;;;;;5053304;28;20381;-77
2022/01/16 06:56:50;;;;;;;45.47;18.98;;;5.60;99.90;;;;;;5052970;28;20029;-77
2022/01/16 06:59:15;;;;;;;41.60;19.50;;;5.60;99.90;;;;;;5052770;28;20695;-77
2022/01/16 07:01:41;;;;;;;45.53;19.88;;;5.60;99.90;;;;;;5053037;28;20078;-77
2022/01/16 07:04:06;;;;;;;41.20;18.48;;;5.60;99.90;;;;;;5053028;28;20025;-77
2022/01/16 07:06:32;;;;;;;45.38;18.90;;;5.70;99.90;;;;;;5053108;28;20050;-77
2022/01/16 07:08:57;;;;;;;39.22;19.05;;;5.70;99.90;;;;;;5052667;28;20448;-77
2022/01/16 07:11:23;;;;;;;42.28;17.85;;;5.60;99.90;;;;;;5052740;28;20045;-77
2022/01/16 07:13:48;;;;;;;41.05;18.98;;;5.50;99.90;;;;;;5052855;28;20044;-78
2022/01/16 07:16:14;;;;;;;44.67;18.67;;;5.50;99.90;;;;;;5052767;28;20079;-77
2022/01/16 07:18:40;;;;;;;38.92;17.77;;;5.50;99.90;;;;;;5052759;28;20020;-77
2022/01/16 07:21:12;;;;;;;34.25;17.60;;;5.70;99.90;;;;;;5052773;28;20098;-77
2022/01/16 07:23:42;;;;;;;31.80;17.98;;;5.60;99.90;;;;;;5052507;28;20025;-77
2022/01/16 07:26:08;;;;;;;42.38;18.58;;;5.70;99.90;;;;;;5052697;28;20021;-78
2022/01/16 07:28:34;;;;;;;37.33;17.02;;;5.70;99.90;;;;;;5052452;28;20029;-77
2022/01/16 07:30:59;;;;;;;39.60;17.02;;;5.70;99.90;;;;;;5052578;28;20025;-77
2022/01/16 07:33:27;;;;;;;35.22;16.20;;;5.60;99.90;;;;;;5052574;28;20492;-77
2022/01/16 07:35:53;;;;;;;37.17;17.33;;;5.70;99.90;;;;;;5052364;28;20485;-77
2022/01/16 07:38:18;;;;;;;38.15;18.08;;;5.70;99.90;;;;;;5052339;28;20040;-77
2022/01/16 07:40:44;;;;;;;34.80;16.85;;;5.70;99.90;;;;;;5052400;28;20095;-77
2022/01/16 07:43:09;;;;;;;36.38;16.45;;;5.70;99.90;;;;;;5052443;28;20064;-78
2022/01/16 07:45:37;;;;;;;37.25;16.42;;;5.70;99.90;;;;;;5052355;28;20021;-77
2022/01/16 07:48:05;;;;;;;37.60;16.92;;;5.70;99.90;;;;;;5052478;28;20018;-77
2022/01/16 07:50:31;;;;;;;31.95;15.68;;;5.80;99.90;;;;;;5051270;28;20017;-77
2022/01/16 07:52:56;;;;;;;32.72;16.70;;;5.80;99.90;;;;;;5052258;28;20028;-77
2022/01/16 07:55:24;;;;;;;35.85;16.08;;;5.70;99.90;;;;;;5052451;28;20017;-78
2022/01/16 07:57:51;;;;;;;36.10;16.08;;;5.90;99.90;;;;;;5052259;28;20104;-78
2022/01/16 08:00:17;;;;;;;33.10;14.90;;;5.80;99.90;;;;;;5052605;28;20113;-77
2022/01/16 08:02:42;;;;;;;34.05;15.57;;;6.00;99.90;;;;;;5052198;28;20045;-78
2022/01/16 08:05:08;;;;;;;32.95;15.52;;;6.00;99.90;;;;;;5052221;28;20063;-77
2022/01/16 08:07:34;;;;;;;29.85;15.82;;;6.00;99.90;;;;;;5052298;28;20481;-77
2022/01/16 08:09:59;;;;;;;35.60;15.98;;;5.90;99.90;;;;;;5051994;28;20025;-77
2022/01/16 08:12:25;;;;;;;30.65;15.70;;;5.90;99.90;;;;;;5050431;28;20037;-77
2022/01/16 08:14:50;;;;;;;32.47;15.23;;;6.00;99.90;;;;;;5052175;28;20238;-78
2022/01/16 08:17:24;;;;;;;31.02;15.30;;;6.00;99.90;;;;;;5051938;28;20029;-78
2022/01/16 08:19:50;;;;;;;39.30;16.48;;;6.10;99.90;;;;;;5052230;28;20082;-78
2022/01/16 08:22:15;;;;;;;34.85;16.67;;;6.10;99.90;;;;;;5051813;28;20104;-78
2022/01/16 08:24:41;;;;;;;36.85;15.98;;;6.10;99.90;;;;;;5050783;28;20029;-77
2022/01/16 08:27:07;;;;;;;32.08;17.20;;;6.10;99.90;;;;;;5050653;28;20025;-78
2022/01/16 08:29:32;;;;;;;40.38;17.20;;;6.20;99.90;;;;;;5052094;28;20549;-77
2022/01/16 08:31:58;;;;;;;33.47;16.45;;;6.30;99.90;;;;;;5051918;28;20032;-77
2022/01/16 08:34:23;;;;;;;30.02;16.20;;;6.20;99.90;;;;;;5054165;28;20056;-78
2022/01/16 08:36:49;;;;;;;33.70;15.73;;;6.30;99.90;;;;;;5055767;28;20027;-77
2022/01/16 08:39:15;;;;;;;31.67;15.65;;;6.20;99.90;;;;;;5056570;28;20029;-79
2022/01/16 08:41:40;;;;;;;27.77;14.30;;;6.40;99.90;;;;;;5058159;28;20017;-79
2022/01/16 08:44:06;;;;;;;31.60;15.77;;;6.40;99.90;;;;;;5058824;28;20021;-80
2022/01/16 08:46:32;;;;;;;31.85;13.93;;;6.30;99.90;;;;;;5058569;28;20032;-79
2022/01/16 08:48:58;;;;;;;29.98;14.48;;;6.50;99.90;;;;;;5058574;28;20065;-80
2022/01/16 08:51:24;;;;;;;27.02;14.30;;;6.50;99.90;;;;;;5058036;28;20029;-79
2022/01/16 08:53:50;;;;;;;37.95;14.70;;;6.50;99.90;;;;;;5057945;28;20099;-78
2022/01/16 08:56:15;;;;;;;29.88;12.65;;;6.50;99.90;;;;;;5058632;28;20032;-79
2022/01/16 08:58:41;;;;;;;28.67;13.13;;;6.50;99.90;;;;;;5058157;28;20084;-80
2022/01/16 09:01:07;;;;;;;26.73;11.90;;;6.60;99.90;;;;;;5057075;28;20028;-79
2022/01/16 09:03:33;;;;;;;26.63;12.43;;;6.60;99.90;;;;;;5056711;28;20017;-79
2022/01/16 09:05:58;;;;;;;26.63;12.45;;;6.60;99.90;;;;;;5056477;28;20025;-79
2022/01/16 09:08:24;;;;;;;29.08;12.32;;;6.60;99.90;;;;;;5057951;28;20040;-79
2022/01/16 09:10:50;;;;;;;28.52;12.18;;;6.70;99.90;;;;;;5058261;28;20075;-79
2022/01/16 09:13:16;;;;;;;31.02;12.25;;;6.70;99.90;;;;;;5058574;28;20032;-79
2022/01/16 09:15:47;;;;;;;26.17;11.57;;;6.70;99.90;;;;;;5058341;28;20063;-80
2022/01/16 09:18:14;;;;;;;20.17;10.40;;;6.80;99.90;;;;;;5058123;28;20472;-79
2022/01/16 09:20:40;;;;;;;27.58;12.00;;;6.70;99.90;;;;;;5057764;28;20354;-79
2022/01/16 09:23:07;;;;;;;25.58;11.07;;;6.80;99.90;;;;;;5054949;28;20397;-79
2022/01/16 09:25:32;;;;;;;25.73;10.95;;;6.80;99.90;;;;;;5054974;28;20025;-79
2022/01/16 09:27:58;;;;;;;24.40;10.27;;;6.90;99.90;;;;;;5054844;28;20070;-79
2022/01/16 09:30:24;;;;;;;24.67;9.70;;;6.90;99.90;;;;;;5055096;28;20476;-79
2022/01/16 09:32:50;;;;;;;24.33;10.50;;;6.90;99.90;;;;;;5054478;28;20029;-77
2022/01/16 09:35:17;;;;;;;16.95;9.27;;;7.00;99.90;;;;;;5054720;28;20025;-77
2022/01/16 09:37:44;;;;;;;24.00;10.68;;;7.00;99.90;;;;;;5054537;28;20484;-77
2022/01/16 09:40:12;;;;;;;16.27;9.30;;;7.00;99.90;;;;;;5054472;28;20029;-77
2022/01/16 09:42:37;;;;;;;20.30;9.30;;;7.00;99.90;;;;;;5054433;28;20020;-77
2022/01/16 09:45:07;;;;;;;18.13;8.85;;;7.00;99.90;;;;;;5054314;28;20310;-77
2022/01/16 09:47:33;;;;;;;19.20;8.55;;;7.00;99.90;;;;;;5054341;28;20496;-77
2022/01/16 09:49:59;;;;;;;17.73;8.55;;;7.10;99.90;;;;;;5054363;28;20063;-77
2022/01/16 09:52:25;;;;;;;20.27;8.20;;;7.00;99.90;;;;;;5054374;28;20021;-77
2022/01/16 09:54:50;;;;;;;17.88;6.93;;;7.10;99.90;;;;;;5054242;28;20067;-77
2022/01/16 09:57:16;;;;;;;16.42;7.50;;;7.00;99.90;;;;;;5053902;28;20036;-77
2022/01/16 09:59:45;;;;;;;20.90;6.65;;;7.10;99.90;;;;;;5054129;28;20503;-77
2022/01/16 10:02:10;;;;;;;19.55;6.90;;;7.10;99.90;;;;;;5054211;28;20060;-77
2022/01/16 10:04:40;;;;;;;19.20;7.15;;;7.20;99.90;;;;;;5052748;28;20380;-77
2022/01/16 10:07:15;;;;;;;17.58;8.07;;;7.10;99.90;;;;;;5054542;28;20040;-77
2022/01/16 10:10:03;;;;;;;13.13;6.40;;;7.20;99.90;;;;;;5053983;28;20084;-77
2022/01/16 10:12:29;;;;;;;16.85;5.85;;;7.20;99.90;;;;;;5054044;28;20048;-77
2022/01/16 10:14:56;;;;;;;18.90;6.97;;;7.20;99.90;;;;;;5053797;28;20536;-77
2022/01/16 10:17:23;;;;;;;14.75;5.90;;;7.20;98.00;;;;;;5054200;28;20017;-77
2022/01/16 10:20:00;;;;;;;16.67;5.90;;;7.30;99.90;;;;;;5053771;28;20070;-77
2022/01/16 10:22:41;;;;;;;13.18;5.70;;;7.20;50.00;;;;;;5054079;28;20060;-77
2022/01/16 10:25:07;;;;;;;;;;;7.30;1.00;;;;;;5054172;28;20074;-77
2022/01/16 10:27:38;;;;;;;16.88;6.10;;;7.30;1.00;;;;;;5053779;28;19913;-77
2022/01/16 10:30:09;;;;;;;16.42;6.88;;;7.30;1.00;;;;;;5053388;28;20033;-77
2022/01/16 10:32:46;;;;;;;17.88;6.97;;;7.30;1.00;;;;;;5053773;28;20043;-77
2022/01/16 10:35:24;;;;;;;25.58;7.28;;;7.40;1.00;;;;;;5053708;28;20104;-77
2022/01/16 10:37:52;;;;;;;13.82;6.57;;;7.40;1.00;;;;;;5053526;28;20361;-77
2022/01/16 10:40:21;;;;;;;21.27;7.07;;;7.40;1.00;;;;;;5053459;28;20575;-77
2022/01/16 10:42:55;;;;;;;16.90;7.03;;;7.40;1.00;;;;;;5053481;28;20021;-77
2022/01/16 10:45:26;;;;;;;18.83;8.02;;;7.50;1.00;;;;;;5053184;28;20233;-77
2022/01/16 10:47:57;;;;;;;16.00;7.57;;;7.50;1.00;;;;;;5033278;28;20438;-77
2022/01/16 10:50:25;;;;;;;19.70;6.78;;;7.50;1.00;;;;;;5033717;28;20533;-77
2022/01/16 10:53:00;;;;;;;20.08;7.50;;;7.40;1.00;;;;;;5033259;28;20105;-77
2022/01/16 10:55:44;;;;;;;14.52;6.25;;;7.50;1.00;;;;;;5032052;28;20105;-77
2022/01/16 10:58:22;;;;;;;20.15;8.45;;;7.60;1.00;;;;;;5032935;28;20057;-77
2022/01/16 11:01:00;;;;;;;16.05;7.03;;;7.70;99.90;;;;;;5032270;28;20075;-77
2022/01/16 11:03:27;;;;;;;20.33;7.55;;;7.80;99.90;;;;;;5033198;28;20445;-77
2022/01/16 11:05:54;;;;;;;20.13;7.28;;;7.90;99.90;;;;;;5032854;28;20057;-77
2022/01/16 11:08:23;;;;;;;14.77;7.57;;;8.00;99.90;;;;;;5033030;28;20030;-77
2022/01/16 11:10:56;;;;;;;20.23;7.30;;;8.10;99.90;;;;;;5032871;28;20076;-77
2022/01/16 11:13:29;;;;;;;19.35;7.80;;;8.20;99.90;;;;;;5046095;28;20029;-77
2022/01/16 11:15:58;;;;;;;15.85;7.00;;;8.20;99.90;;;;;;5051753;28;20025;-77
2022/01/16 11:18:25;;;;;;;18.10;6.72;;;8.30;99.90;;;;;;5053208;28;20090;-77
2022/01/16 11:21:15;;;;;;;16.20;7.00;;;8.40;99.90;;;;;;5051529;28;20093;-77
2022/01/16 11:26:26;;;;;;;17.33;8.27;;;8.40;99.90;;;;;;5052829;28;20029;-77
2022/01/16 11:28:53;;;;;;;15.40;8.05;;;8.50;99.90;;;;;;5052381;28;20036;-77
2022/01/16 11:31:19;;;;;;;17.15;7.55;;;8.50;99.90;;;;;;5051257;28;20056;-77
2022/01/16 11:33:45;;;;;;;15.38;6.97;;;8.40;99.90;;;;;;5052514;28;20028;-77
2022/01/16 11:36:14;;;;;;;15.50;7.68;;;8.40;99.90;;;;;;5052971;28;20017;-77
2022/01/16 11:38:51;;;;;;;18.73;8.05;;;8.50;99.90;;;;;;5052588;28;20063;-77
2022/01/16 11:41:32;;;;;;;16.55;7.03;;;8.40;99.90;;;;;;5051278;28;20035;-77
2022/01/16 11:43:59;;;;;;;16.83;7.30;;;8.40;99.90;;;;;;5052735;28;20029;-77
2022/01/16 11:46:26;;;;;;;24.60;7.10;;;8.40;99.90;;;;;;5052379;28;20033;-77
2022/01/16 11:49:04;;;;;;;17.35;6.72;;;8.40;99.90;;;;;;5052266;28;20400;-77
2022/01/16 11:51:32;;;;;;;14.57;6.18;;;8.40;99.90;;;;;;5052482;28;20448;-77
2022/01/16 11:53:58;;;;;;;16.60;6.18;;;8.40;99.90;;;;;;5052356;28;20049;-77
2022/01/16 11:56:41;;;;;;;16.73;6.65;;;8.40;99.90;;;;;;5052317;28;20069;-77
2022/01/16 11:59:16;;;;;;;17.75;6.55;;;8.40;99.90;;;;;;5052330;28;20025;-77
2022/01/16 12:01:46;;;;;;;14.52;6.70;;;8.40;99.90;;;;;;5052201;28;20020;-77
2022/01/16 12:04:29;;;;;;;12.98;6.68;;;8.50;99.90;;;;;;5052405;28;20025;-77
2022/01/16 12:06:55;;;;;;;15.90;7.05;;;8.50;99.90;;;;;;5052410;28;20384;-77
2022/01/16 12:09:36;;;;;;;17.05;6.75;;;8.50;99.90;;;;;;5053486;28;20029;-77
2022/01/16 12:12:23;;;;;;;15.00;7.68;;;8.50;99.90;;;;;;5055855;28;20045;-77
2022/01/16 12:15:05;;;;;;;15.85;7.82;;;8.50;99.90;;;;;;5056147;28;20029;-77
2022/01/16 12:20:17;;;;;;;17.38;7.13;;;8.50;99.90;;;;;;5056381;28;20044;-77
2022/01/16 12:22:43;;;;;;;15.68;7.18;;;8.40;99.90;;;;;;5056088;28;20025;-77
2022/01/16 12:25:33;;;;;;;16.15;6.60;;;8.40;99.90;;;;;;5055996;28;20086;-77
2022/01/16 12:28:03;;;;;;;17.27;6.88;;;8.40;99.90;;;;;;5055860;28;20035;-77
2022/01/16 12:30:35;;;;;;;17.35;7.28;;;8.40;99.90;;;;;;5055927;28;20032;-77
2022/01/16 12:33:15;;;;;;;14.88;6.85;;;8.40;99.90;;;;;;5055866;28;20028;-77
2022/01/16 12:35:41;;;;;;;16.33;6.13;;;8.40;99.90;;;;;;5055676;28;20028;-77
2022/01/16 12:38:11;;;;;;;13.43;5.50;;;8.30;99.90;;;;;;5054977;28;20017;-77
2022/01/16 12:40:38;;;;;;;14.95;5.60;;;8.30;99.90;;;;;;5054391;28;20437;-77
2022/01/16 12:43:08;;;;;;;16.77;6.22;;;8.30;99.90;;;;;;5054368;28;20036;-77
2022/01/16 12:45:41;;;;;;;14.57;5.82;;;8.30;99.90;;;;;;5055780;28;20078;-77
2022/01/16 12:48:08;;;;;;;15.00;5.80;;;8.30;99.90;;;;;;5055459;28;20116;-77
2022/01/16 12:50:35;;;;;;;16.73;5.82;;;8.30;99.90;;;;;;5054403;28;20036;-77
2022/01/16 12:53:01;;;;;;;16.20;5.93;;;8.20;99.90;;;;;;5055606;28;20037;-77
2022/01/16 12:55:28;;;;;;;14.75;5.70;;;8.20;99.90;;;;;;5055665;28;20503;-77
2022/01/16 12:58:13;;;;;;;14.05;5.70;;;8.20;99.90;;;;;;5055435;28;20032;-77
2022/01/16 13:00:57;;;;;;;20.05;6.97;;;8.30;99.90;;;;;;5055149;28;20111;-77
2022/01/16 13:03:29;;;;;;;13.85;5.65;;;8.30;99.90;;;;;;5055393;28;20079;-77
2022/01/16 13:06:21;;;;;;;20.30;6.75;;;8.30;99.90;;;;;;5054033;28;20123;-77
2022/01/16 13:09:07;;;;;;;12.85;5.70;;;8.30;99.90;;;;;;5055061;28;20040;-77
2022/01/16 13:11:37;;;;;;;12.32;5.72;;;8.40;99.90;;;;;;5053862;28;20137;-77
2022/01/16 13:14:08;;;;;;;14.82;5.95;;;8.40;99.90;;;;;;5054045;28;20051;-77
2022/01/16 13:16:39;;;;;;;15.40;5.70;;;8.40;99.90;;;;;;5054975;28;20384;-77
2022/01/16 13:19:19;;;;;;;12.60;5.88;;;8.40;99.90;;;;;;5055240;28;20029;-77
2022/01/16 13:22:12;;;;;;;16.45;6.78;;;8.40;99.90;;;;;;5054886;28;20021;-77
2022/01/16 13:24:48;;;;;;;14.15;6.45;;;8.40;99.90;;;;;;5055028;28;20029;-77
2022/01/16 13:27:18;;;;;;;13.65;6.53;;;8.40;99.90;;;;;;5054949;28;20025;-77
2022/01/16 13:29:50;;;;;;;14.02;6.65;;;8.40;99.90;;;;;;5054684;28;20400;-77
2022/01/16 13:32:19;;;;;;;13.98;6.70;;;8.50;99.90;;;;;;5054846;28;20040;-77
2022/01/16 13:34:46;;;;;;;16.42;7.40;;;8.50;99.90;;;;;;5055380;28;20029;-77
2022/01/16 13:37:16;;;;;;;16.83;7.40;;;8.60;99.90;;;;;;5054517;28;20384;-78